Bermuda Spirit — C6XT2 — position and weather

sailwx.info

Track history (hours):
 
Tides and Currents Weather Stations Pressure Air Temp Water Temp Dewpoint Dewpoint Depression Visibility Wind Speed Wind Dir Waves Ship Positions

Bermuda Spirit

Last reported at 2015-Sep-01 09:18 UTC. Time now 2015-Sep-02 00:25 UTC.
Position N 43°14' E 034°07'.

Length 274 m; draft 16.2 m.

Type: Tanker. MMSI: 311020900.

Date/timePositionNaut miles runAvg speedWind from/ knotsBaromVisibWave heightAir tempDewpointWater temp
2015-Sep-01 09:18N 43°14' E 034°07'912.6
2015-Sep-01 08:33N 43°18' E 034°19'1212.3
2015-Sep-01 07:33N 43°24' E 034°34'1212.2
2015-Sep-01 06:33N 43°29' E 034°49'1212.2
2015-Sep-01 05:33N 43°35' E 035°04'1212.3
2015-Sep-01 04:33N 43°40' E 035°19'1212.5
2015-Sep-01 03:33N 43°46' E 035°34'1312.7
2015-Sep-01 02:33N 43°52' E 035°50'1312.8
2015-Sep-01 01:33N 43°57' E 036°06'1312.7
2015-Sep-01 00:33N 44°03' E 036°22'1313.0
2015-Aug-31 23:33N 44°09' E 036°38'1312.8
2015-Aug-31 22:33N 44°15' E 036°54'49 2.6
2015-Aug-31 03:33N 44°42' E 037°50'0 0.0
2015-Aug-31 02:33N 44°42' E 037°50'0 0.0
2015-Aug-31 01:33N 44°42' E 037°50'0 0.0
2015-Aug-31 00:33N 44°42' E 037°50'0 0.0
2015-Aug-30 23:33N 44°42' E 037°50'0 0.0
2015-Aug-30 22:33N 44°42' E 037°50'0 0.0
2015-Aug-30 21:33N 44°42' E 037°50'0 0.0
2015-Aug-30 20:33N 44°42' E 037°50'0 0.0
2015-Aug-30 19:33N 44°42' E 037°50'0 0.0
2015-Aug-30 14:15N 44°42' E 037°50'0 0.0
2015-Aug-30 13:33N 44°42' E 037°50'0 0.0
2015-Aug-30 12:33N 44°42' E 037°50'0 0.0
2015-Aug-30 11:33N 44°42' E 037°50'0 0.0
2015-Aug-30 10:33N 44°42' E 037°50'0 0.0
2015-Aug-30 09:33N 44°42' E 037°50'0 0.0
2015-Aug-30 08:33N 44°42' E 037°50'0 0.0
2015-Aug-30 07:33N 44°42' E 037°50'0 0.0
2015-Aug-30 06:33N 44°42' E 037°50'0 0.0
2015-Aug-30 05:33N 44°42' E 037°50'0 0.0
2015-Aug-30 04:33N 44°42' E 037°50'0 0.0
2015-Aug-30 03:33N 44°42' E 037°50'1 0.8
2015-Aug-30 02:33N 44°41' E 037°50'5 5.2
2015-Aug-30 01:33N 44°36' E 037°51'1313.3
2015-Aug-30 00:33N 44°27' E 037°38'1111.3
2015-Aug-29 23:34N 44°21' E 037°25'1 1.2
2015-Aug-29 22:34N 44°21' E 037°26'1 1.5
2015-Aug-29 21:33N 44°20' E 037°28'2 1.6
2015-Aug-29 20:34N 44°20' E 037°31'2 1.6
2015-Aug-29 19:33N 44°21' E 037°33'2 1.5
2015-Aug-29 18:33N 44°21' E 037°35'1 1.5
2015-Aug-29 17:34N 44°21' E 037°37'1 1.2
2015-Aug-29 16:33N 44°22' E 037°38'1 0.9
2015-Aug-29 15:34N 44°22' E 037°39'1 0.6
2015-Aug-29 14:33N 44°23' E 037°40'1 0.6
2015-Aug-29 13:34N 44°23' E 037°41'1 0.5
2015-Aug-29 12:34N 44°23' E 037°42'1 0.5
2015-Aug-29 11:33N 44°23' E 037°42'1 0.8
2015-Aug-29 10:34N 44°22' E 037°43'1 1.0
2015-Aug-29 09:34N 44°22' E 037°44'1 1.0
2015-Aug-29 08:34N 44°21' E 037°45'0 0.3
2015-Aug-29 07:33N 44°21' E 037°46'8 8.3
2015-Aug-29 06:34N 44°23' E 037°35'4 3.5
2015-Aug-29 05:34N 44°23' E 037°30'1 0.8
2015-Aug-29 04:33N 44°23' E 037°31'1 0.7
2015-Aug-29 03:34N 44°23' E 037°32'1 0.5
2015-Aug-29 02:33N 44°23' E 037°32'0 0.4
2015-Aug-29 01:32N 44°23' E 037°33'0 0.3
2015-Aug-29 00:32N 44°23' E 037°33'0 0.3
2015-Aug-28 23:33N 44°23' E 037°34'0 0.2
2015-Aug-28 22:34N 44°23' E 037°34'0 0.3
2015-Aug-28 21:33N 44°23' E 037°34'0 0.5
2015-Aug-28 20:32N 44°22' E 037°34'1 0.5
2015-Aug-28 19:33N 44°22' E 037°35'1 0.7
2015-Aug-28 18:33N 44°21' E 037°35'1 0.7
2015-Aug-28 17:33N 44°21' E 037°36'1 0.8
2015-Aug-28 16:34N 44°20' E 037°37'1 1.0
2015-Aug-28 15:33N 44°20' E 037°39'1 1.1
2015-Aug-28 14:34N 44°20' E 037°40'1 1.0
2015-Aug-28 13:33N 44°20' E 037°41'1 0.8
2015-Aug-28 12:33N 44°20' E 037°42'1 0.9
2015-Aug-28 11:33N 44°21' E 037°44'2 1.9
2015-Aug-28 10:33N 44°22' E 037°43'7 7.2
2015-Aug-28 09:33N 44°26' E 037°34'9 8.5
2015-Aug-28 08:34N 44°22' E 037°24'9 8.6
2015-Aug-28 07:33N 44°18' E 037°13'9 9.1
2015-Aug-28 06:34N 44°14' E 037°02'1110.8
2015-Aug-28 05:33N 44°09' E 036°48'1111.3
2015-Aug-28 04:33N 44°04' E 036°34'8 8.3
2015-Aug-28 03:33N 44°01' E 036°24'9 8.6
2015-Aug-28 02:34N 43°57' E 036°13'9 8.6
2015-Aug-28 01:33N 43°54' E 036°02'9 8.7
2015-Aug-28 00:33N 43°49' E 035°51'9 8.7
2015-Aug-27 23:33N 43°47' E 035°40'11 8.7
2015-Aug-27 22:16N 43°42' E 035°26'6 8.8
2015-Aug-27 21:33N 43°39' E 035°18'9 8.9
2015-Aug-27 20:33N 43°35' E 035°07'9 9.0
2015-Aug-27 19:33N 43°31' E 034°56'11 8.6
2015-Aug-27 18:19N 43°27' E 034°42'10 8.5
2015-Aug-27 17:06N 43°23' E 034°29'5 8.3
2015-Aug-27 16:33N 43°21' E 034°23'8 8.1
2015-Aug-27 15:33N 43°18' E 034°13'287 8.0
2015-Aug-26 03:29N 40°44' E 028°47'1 0.9
2015-Aug-26 02:31N 40°45' E 028°47'2 1.9
2015-Aug-26 01:33N 40°47' E 028°47'268 8.4
2015-Aug-24 17:33N 37°44' E 024°33'  
Track history (hours):
 
Tides and Currents Weather Stations Pressure Air Temp Water Temp Dewpoint Dewpoint Depression Visibility Wind Speed Wind Dir Waves Ship Positions

Bermuda Spirit

Last reported at 2015-Sep-01 09:18 UTC. Time now 2015-Sep-02 00:25 UTC.
Position N 43°14' E 034°07'.

Length 274 m; draft 16.2 m.

Type: Tanker. MMSI: 311020900.

Date/timePositionNaut miles runAvg speedWind from/ knotsBaromVisibWave heightAir tempDewpointWater temp
2015-Sep-01 09:18N 43°14' E 034°07'912.6
2015-Sep-01 08:33N 43°18' E 034°19'1212.3
2015-Sep-01 07:33N 43°24' E 034°34'1212.2
2015-Sep-01 06:33N 43°29' E 034°49'1212.2
2015-Sep-01 05:33N 43°35' E 035°04'1212.3
2015-Sep-01 04:33N 43°40' E 035°19'1212.5
2015-Sep-01 03:33N 43°46' E 035°34'1312.7
2015-Sep-01 02:33N 43°52' E 035°50'1312.8
2015-Sep-01 01:33N 43°57' E 036°06'1312.7
2015-Sep-01 00:33N 44°03' E 036°22'1313.0
2015-Aug-31 23:33N 44°09' E 036°38'1312.8
2015-Aug-31 22:33N 44°15' E 036°54'49 2.6
2015-Aug-31 03:33N 44°42' E 037°50'0 0.0
2015-Aug-31 02:33N 44°42' E 037°50'0 0.0
2015-Aug-31 01:33N 44°42' E 037°50'0 0.0
2015-Aug-31 00:33N 44°42' E 037°50'0 0.0
2015-Aug-30 23:33N 44°42' E 037°50'0 0.0
2015-Aug-30 22:33N 44°42' E 037°50'0 0.0
2015-Aug-30 21:33N 44°42' E 037°50'0 0.0
2015-Aug-30 20:33N 44°42' E 037°50'0 0.0
2015-Aug-30 19:33N 44°42' E 037°50'0 0.0
2015-Aug-30 14:15N 44°42' E 037°50'0 0.0
2015-Aug-30 13:33N 44°42' E 037°50'0 0.0
2015-Aug-30 12:33N 44°42' E 037°50'0 0.0
2015-Aug-30 11:33N 44°42' E 037°50'0 0.0
2015-Aug-30 10:33N 44°42' E 037°50'0 0.0
2015-Aug-30 09:33N 44°42' E 037°50'0 0.0
2015-Aug-30 08:33N 44°42' E 037°50'0 0.0
2015-Aug-30 07:33N 44°42' E 037°50'0 0.0
2015-Aug-30 06:33N 44°42' E 037°50'0 0.0
2015-Aug-30 05:33N 44°42' E 037°50'0 0.0
2015-Aug-30 04:33N 44°42' E 037°50'0 0.0
2015-Aug-30 03:33N 44°42' E 037°50'1 0.8
2015-Aug-30 02:33N 44°41' E 037°50'5 5.2
2015-Aug-30 01:33N 44°36' E 037°51'1313.3
2015-Aug-30 00:33N 44°27' E 037°38'1111.3
2015-Aug-29 23:34N 44°21' E 037°25'1 1.2
2015-Aug-29 22:34N 44°21' E 037°26'1 1.5
2015-Aug-29 21:33N 44°20' E 037°28'2 1.6
2015-Aug-29 20:34N 44°20' E 037°31'2 1.6
2015-Aug-29 19:33N 44°21' E 037°33'2 1.5
2015-Aug-29 18:33N 44°21' E 037°35'1 1.5
2015-Aug-29 17:34N 44°21' E 037°37'1 1.2
2015-Aug-29 16:33N 44°22' E 037°38'1 0.9
2015-Aug-29 15:34N 44°22' E 037°39'1 0.6
2015-Aug-29 14:33N 44°23' E 037°40'1 0.6
2015-Aug-29 13:34N 44°23' E 037°41'1 0.5
2015-Aug-29 12:34N 44°23' E 037°42'1 0.5
2015-Aug-29 11:33N 44°23' E 037°42'1 0.8
2015-Aug-29 10:34N 44°22' E 037°43'1 1.0
2015-Aug-29 09:34N 44°22' E 037°44'1 1.0
2015-Aug-29 08:34N 44°21' E 037°45'0 0.3
2015-Aug-29 07:33N 44°21' E 037°46'8 8.3
2015-Aug-29 06:34N 44°23' E 037°35'4 3.5
2015-Aug-29 05:34N 44°23' E 037°30'1 0.8
2015-Aug-29 04:33N 44°23' E 037°31'1 0.7
2015-Aug-29 03:34N 44°23' E 037°32'1 0.5
2015-Aug-29 02:33N 44°23' E 037°32'0 0.4
2015-Aug-29 01:32N 44°23' E 037°33'0 0.3
2015-Aug-29 00:32N 44°23' E 037°33'0 0.3
2015-Aug-28 23:33N 44°23' E 037°34'0 0.2
2015-Aug-28 22:34N 44°23' E 037°34'0 0.3
2015-Aug-28 21:33N 44°23' E 037°34'0 0.5
2015-Aug-28 20:32N 44°22' E 037°34'1 0.5
2015-Aug-28 19:33N 44°22' E 037°35'1 0.7
2015-Aug-28 18:33N 44°21' E 037°35'1 0.7
2015-Aug-28 17:33N 44°21' E 037°36'1 0.8
2015-Aug-28 16:34N 44°20' E 037°37'1 1.0
2015-Aug-28 15:33N 44°20' E 037°39'1 1.1
2015-Aug-28 14:34N 44°20' E 037°40'1 1.0
2015-Aug-28 13:33N 44°20' E 037°41'1 0.8
2015-Aug-28 12:33N 44°20' E 037°42'1 0.9
2015-Aug-28 11:33N 44°21' E 037°44'2 1.9
2015-Aug-28 10:33N 44°22' E 037°43'7 7.2
2015-Aug-28 09:33N 44°26' E 037°34'9 8.5
2015-Aug-28 08:34N 44°22' E 037°24'9 8.6
2015-Aug-28 07:33N 44°18' E 037°13'9 9.1
2015-Aug-28 06:34N 44°14' E 037°02'1110.8
2015-Aug-28 05:33N 44°09' E 036°48'1111.3
2015-Aug-28 04:33N 44°04' E 036°34'8 8.3
2015-Aug-28 03:33N 44°01' E 036°24'9 8.6
2015-Aug-28 02:34N 43°57' E 036°13'9 8.6
2015-Aug-28 01:33N 43°54' E 036°02'9 8.7
2015-Aug-28 00:33N 43°49' E 035°51'9 8.7
2015-Aug-27 23:33N 43°47' E 035°40'11 8.7
2015-Aug-27 22:16N 43°42' E 035°26'6 8.8
2015-Aug-27 21:33N 43°39' E 035°18'9 8.9
2015-Aug-27 20:33N 43°35' E 035°07'9 9.0
2015-Aug-27 19:33N 43°31' E 034°56'11 8.6
2015-Aug-27 18:19N 43°27' E 034°42'10 8.5
2015-Aug-27 17:06N 43°23' E 034°29'5 8.3
2015-Aug-27 16:33N 43°21' E 034°23'8 8.1
2015-Aug-27 15:33N 43°18' E 034°13'287 8.0
2015-Aug-26 03:29N 40°44' E 028°47'1 0.9
2015-Aug-26 02:31N 40°45' E 028°47'2 1.9
2015-Aug-26 01:33N 40°47' E 028°47'268 8.4
2015-Aug-24 17:33N 37°44' E 024°33'  

Dump ship's entire track history